createdAt,value
2018-04-14T00:00:35.567Z,0.00
2018-04-14T00:01:35.806Z,0.00
2018-04-14T00:02:36.044Z,0.00
2018-04-14T00:03:36.284Z,0.00
2018-04-14T00:04:36.521Z,0.00
2018-04-14T00:05:36.762Z,0.00
2018-04-14T00:06:37.004Z,0.00
2018-04-14T00:07:37.242Z,0.00
2018-04-14T00:08:37.477Z,0.00
2018-04-14T00:09:37.707Z,0.00
2018-04-14T00:10:37.945Z,0.00
2018-04-14T00:11:38.183Z,0.00
2018-04-14T00:12:38.422Z,0.00
2018-04-14T00:13:38.660Z,0.00
2018-04-14T00:14:38.897Z,0.00
2018-04-14T00:15:39.139Z,0.00
2018-04-14T00:16:39.376Z,0.00
2018-04-14T00:17:39.620Z,0.00
2018-04-14T00:18:39.853Z,0.00
2018-04-14T00:19:40.092Z,0.00
2018-04-14T00:20:40.330Z,0.00
2018-04-14T00:21:40.568Z,0.00
2018-04-14T00:22:40.802Z,0.00
2018-04-14T00:23:41.062Z,0.00
2018-04-14T00:24:41.290Z,0.00
2018-04-14T00:25:41.517Z,0.00
2018-04-14T00:26:41.759Z,0.00
2018-04-14T00:27:42.001Z,0.00
2018-04-14T00:28:42.234Z,0.00
2018-04-14T00:29:42.467Z,0.00
2018-04-14T00:30:42.704Z,0.00
2018-04-14T00:31:42.942Z,0.00
2018-04-14T00:32:43.182Z,0.00
2018-04-14T00:33:43.426Z,0.00
2018-04-14T00:34:43.663Z,0.00
2018-04-14T00:35:43.901Z,0.00
2018-04-14T00:36:44.139Z,0.00
2018-04-14T00:37:44.382Z,0.00
2018-04-14T00:38:44.619Z,0.00
2018-04-14T00:39:44.889Z,0.00
2018-04-14T00:40:45.098Z,0.00
2018-04-14T00:41:45.338Z,0.00
2018-04-14T00:42:45.578Z,0.00
2018-04-14T00:43:45.816Z,0.00
2018-04-14T00:44:46.055Z,0.00
2018-04-14T00:45:46.295Z,0.00
2018-04-14T00:46:46.535Z,0.00
2018-04-14T00:47:46.774Z,0.00
2018-04-14T00:48:47.065Z,0.00
2018-04-14T00:49:47.255Z,0.00
2018-04-14T00:50:47.493Z,0.00
2018-04-14T00:51:47.732Z,0.00
2018-04-14T00:52:47.973Z,0.00
2018-04-14T00:53:48.214Z,0.00
2018-04-14T00:54:48.452Z,0.00
2018-04-14T00:55:48.691Z,0.00
2018-04-14T00:56:48.932Z,0.00
2018-04-14T00:57:49.174Z,0.00
2018-04-14T00:58:49.416Z,0.00
2018-04-14T00:59:49.652Z,0.00
2018-04-14T01:00:49.892Z,0.00
2018-04-14T01:01:50.132Z,0.00
2018-04-14T01:02:50.378Z,0.00
2018-04-14T01:03:50.613Z,0.00
2018-04-14T01:04:50.850Z,0.00
2018-04-14T01:05:51.096Z,0.00
2018-04-14T01:06:51.330Z,0.00
2018-04-14T01:07:51.567Z,0.00
2018-04-14T01:08:51.805Z,0.00
2018-04-14T01:09:52.043Z,0.00
2018-04-14T01:10:52.282Z,0.00
2018-04-14T01:11:52.520Z,0.00
2018-04-14T01:12:52.761Z,0.00
2018-04-14T01:13:52.999Z,0.00
2018-04-14T01:14:53.239Z,0.00
2018-04-14T01:15:53.478Z,0.00
2018-04-14T01:16:53.720Z,0.00
2018-04-14T01:17:53.957Z,0.00
2018-04-14T01:18:54.198Z,0.00
2018-04-14T01:19:54.435Z,0.00
2018-04-14T01:20:54.676Z,0.00
2018-04-14T01:21:54.911Z,0.00
2018-04-14T01:22:55.150Z,0.00
2018-04-14T01:23:55.390Z,0.00
2018-04-14T01:24:55.629Z,0.00
2018-04-14T01:25:55.871Z,0.00
2018-04-14T01:26:56.110Z,0.00
2018-04-14T01:27:56.349Z,0.00
2018-04-14T01:28:56.592Z,0.00
2018-04-14T01:29:56.828Z,0.00
2018-04-14T01:30:57.066Z,0.00
2018-04-14T01:31:57.307Z,0.00
2018-04-14T01:32:57.546Z,0.00
2018-04-14T01:33:57.784Z,0.00
2018-04-14T01:34:58.023Z,0.00
2018-04-14T01:35:58.261Z,0.00
2018-04-14T01:36:58.505Z,0.00
2018-04-14T01:37:58.737Z,0.00
2018-04-14T01:38:58.979Z,0.00
2018-04-14T01:39:59.218Z,0.00
2018-04-14T01:40:59.456Z,0.00
2018-04-14T01:41:59.696Z,0.00
2018-04-14T01:42:59.938Z,0.00
2018-04-14T01:44:00.179Z,0.00
2018-04-14T01:45:00.417Z,0.00
2018-04-14T01:46:00.654Z,0.00
2018-04-14T01:47:00.895Z,0.00
2018-04-14T01:48:01.133Z,0.00
2018-04-14T01:49:01.375Z,0.00
2018-04-14T01:50:01.616Z,0.00
2018-04-14T01:51:01.858Z,0.00
2018-04-14T01:52:02.095Z,0.00
2018-04-14T01:53:02.338Z,0.00
2018-04-14T01:54:02.573Z,0.00
2018-04-14T01:55:02.810Z,0.00
2018-04-14T01:56:03.049Z,0.00
2018-04-14T01:57:03.284Z,0.00
2018-04-14T01:58:03.524Z,0.00
2018-04-14T01:59:03.764Z,0.00
2018-04-14T02:00:04.005Z,0.00
2018-04-14T02:01:04.246Z,0.00
2018-04-14T02:02:04.485Z,0.00
2018-04-14T02:03:04.722Z,0.00
2018-04-14T02:04:04.959Z,0.00
2018-04-14T02:05:05.200Z,0.00
2018-04-14T02:06:05.445Z,0.00
2018-04-14T02:07:05.683Z,0.00
2018-04-14T02:08:05.926Z,0.00
2018-04-14T02:09:06.166Z,0.00
2018-04-14T02:10:06.404Z,0.00
2018-04-14T02:11:06.648Z,0.00
2018-04-14T02:12:06.887Z,0.00
2018-04-14T02:13:07.123Z,0.00
2018-04-14T02:14:07.363Z,0.00
2018-04-14T02:15:07.600Z,0.00
2018-04-14T02:16:07.841Z,0.00
2018-04-14T02:17:08.079Z,0.00
2018-04-14T02:18:08.319Z,0.00
2018-04-14T02:19:08.557Z,0.00
2018-04-14T02:20:08.799Z,0.00
2018-04-14T02:21:09.035Z,0.00
2018-04-14T02:22:09.273Z,0.00
2018-04-14T02:23:09.513Z,0.00
2018-04-14T02:24:09.752Z,0.00
2018-04-14T02:25:09.990Z,0.00
2018-04-14T02:26:10.231Z,0.00
2018-04-14T02:27:10.456Z,0.00
2018-04-14T02:28:10.692Z,0.00
2018-04-14T02:29:10.933Z,0.00
2018-04-14T02:30:11.170Z,0.00
2018-04-14T02:31:11.410Z,0.00
2018-04-14T02:32:11.647Z,0.00
2018-04-14T02:33:11.886Z,0.00
2018-04-14T02:34:12.128Z,0.00
2018-04-14T02:35:12.366Z,0.00
2018-04-14T02:36:12.607Z,0.00
2018-04-14T02:37:12.849Z,0.00
2018-04-14T02:38:13.089Z,0.00
2018-04-14T02:39:13.330Z,0.00
2018-04-14T02:40:13.565Z,0.00
2018-04-14T02:41:13.805Z,0.00
2018-04-14T02:42:14.044Z,0.00
2018-04-14T02:43:14.285Z,0.00
2018-04-14T02:44:14.526Z,0.00
2018-04-14T02:45:14.765Z,0.00
2018-04-14T02:46:15.003Z,0.00
2018-04-14T02:47:15.242Z,0.00
2018-04-14T02:48:15.479Z,0.00
2018-04-14T02:49:15.720Z,0.00
2018-04-14T02:50:15.957Z,0.00
2018-04-14T02:51:16.196Z,0.00
2018-04-14T02:52:16.476Z,0.00
2018-04-14T02:53:16.679Z,0.00
2018-04-14T02:54:16.923Z,0.00
2018-04-14T02:55:17.157Z,0.00
2018-04-14T02:56:17.394Z,0.00
2018-04-14T02:57:17.636Z,0.00
2018-04-14T02:58:17.879Z,0.00
2018-04-14T02:59:18.115Z,0.00
2018-04-14T03:00:18.353Z,0.00
2018-04-14T03:01:18.590Z,0.00
2018-04-14T03:02:18.830Z,0.00
2018-04-14T03:03:19.070Z,0.00
2018-04-14T03:04:19.314Z,0.00
2018-04-14T03:05:19.553Z,0.00
2018-04-14T03:06:19.789Z,0.00
2018-04-14T03:07:20.021Z,0.00
2018-04-14T03:08:20.264Z,0.00
2018-04-14T03:09:20.507Z,0.00
2018-04-14T03:10:20.811Z,0.00
2018-04-14T03:11:20.982Z,0.00
2018-04-14T03:12:21.221Z,0.00
2018-04-14T03:13:21.460Z,0.00
2018-04-14T03:14:21.700Z,0.00
2018-04-14T03:15:21.949Z,0.00
2018-04-14T03:16:22.182Z,0.00
2018-04-14T03:17:22.420Z,0.00
2018-04-14T03:18:22.661Z,0.00
2018-04-14T03:19:22.899Z,0.00
2018-04-14T03:20:23.137Z,0.00
2018-04-14T03:21:23.376Z,0.00
2018-04-14T03:22:23.614Z,0.00
2018-04-14T03:23:23.853Z,0.00
2018-04-14T03:24:24.093Z,0.00
2018-04-14T03:25:24.332Z,0.00
2018-04-14T03:26:24.571Z,0.00
2018-04-14T03:27:24.810Z,0.00
2018-04-14T03:28:25.048Z,0.00
2018-04-14T03:29:25.286Z,0.00
2018-04-14T03:30:25.529Z,0.00
2018-04-14T03:31:25.771Z,0.00
2018-04-14T03:32:26.006Z,0.00
2018-04-14T03:33:26.243Z,0.00
2018-04-14T03:34:26.481Z,0.00
2018-04-14T03:35:26.722Z,0.00
2018-04-14T03:36:26.957Z,0.00
2018-04-14T03:37:27.197Z,0.00
2018-04-14T03:38:27.439Z,0.00
2018-04-14T03:39:27.674Z,0.00
2018-04-14T03:40:27.914Z,0.00
2018-04-14T03:41:28.151Z,0.00
2018-04-14T03:42:28.391Z,0.00
2018-04-14T03:43:28.630Z,0.00
2018-04-14T03:44:28.868Z,0.00
2018-04-14T03:45:29.106Z,0.00
2018-04-14T03:46:29.347Z,0.00
2018-04-14T03:47:29.594Z,0.00
2018-04-14T03:48:29.824Z,0.00
2018-04-14T03:49:30.063Z,0.00
2018-04-14T03:50:30.301Z,0.00
2018-04-14T03:51:30.539Z,0.00
2018-04-14T03:52:30.777Z,0.00
2018-04-14T03:53:31.018Z,0.00
2018-04-14T03:54:31.263Z,0.00
2018-04-14T03:55:31.496Z,0.00
2018-04-14T03:56:31.733Z,0.00
2018-04-14T03:57:31.971Z,0.00
2018-04-14T03:58:32.215Z,0.00
2018-04-14T03:59:32.458Z,0.00
2018-04-14T04:00:32.695Z,0.00
2018-04-14T04:01:32.935Z,0.00
2018-04-14T04:02:33.172Z,0.00
2018-04-14T04:03:33.411Z,0.00
2018-04-14T04:04:33.650Z,0.00
2018-04-14T04:05:33.888Z,0.00
2018-04-14T04:06:34.126Z,0.00
2018-04-14T04:07:34.363Z,0.00
2018-04-14T04:08:34.604Z,0.00
2018-04-14T04:09:34.843Z,0.00
2018-04-14T04:10:35.082Z,0.00
2018-04-14T04:11:35.324Z,0.00
2018-04-14T04:12:35.559Z,0.00
2018-04-14T04:13:35.798Z,0.00
2018-04-14T04:14:36.036Z,0.00
2018-04-14T04:15:36.282Z,0.00
2018-04-14T04:16:36.522Z,0.00
2018-04-14T04:17:36.756Z,0.00
2018-04-14T04:18:36.994Z,0.00
2018-04-14T04:19:37.234Z,0.00
2018-04-14T04:20:37.474Z,0.00
2018-04-14T04:21:37.718Z,0.00
2018-04-14T04:22:37.956Z,0.00
2018-04-14T04:23:38.195Z,0.00
2018-04-14T04:24:38.438Z,0.00
2018-04-14T04:25:38.676Z,0.00
2018-04-14T04:26:38.914Z,0.00
2018-04-14T04:27:39.151Z,0.00
2018-04-14T04:28:39.391Z,0.00
2018-04-14T04:29:39.629Z,0.00
2018-04-14T04:30:39.868Z,5.63
2018-04-14T04:31:40.109Z,5.63
2018-04-14T04:32:40.346Z,5.63
2018-04-14T04:33:40.585Z,5.63
2018-04-14T04:34:40.827Z,5.63
2018-04-14T04:35:41.065Z,5.63
2018-04-14T04:36:41.304Z,5.63
2018-04-14T04:37:41.540Z,5.63
2018-04-14T04:38:41.787Z,5.63
2018-04-14T04:39:42.016Z,5.63
2018-04-14T04:40:42.258Z,11.25
2018-04-14T04:41:42.498Z,11.25
2018-04-14T04:42:42.737Z,11.25
2018-04-14T04:43:42.977Z,11.25
2018-04-14T04:44:43.216Z,11.25
2018-04-14T04:45:43.456Z,11.25
2018-04-14T04:46:43.694Z,11.25
2018-04-14T04:47:43.937Z,11.25
2018-04-14T04:48:44.189Z,11.25
2018-04-14T04:49:44.417Z,11.25
2018-04-14T04:50:44.655Z,16.88
2018-04-14T04:51:44.895Z,16.88
2018-04-14T04:52:45.133Z,16.88
2018-04-14T04:53:45.374Z,16.88
2018-04-14T04:54:45.611Z,16.88
2018-04-14T04:55:45.850Z,16.88
2018-04-14T04:56:46.090Z,22.50
2018-04-14T04:57:46.330Z,22.50
2018-04-14T04:58:46.568Z,22.50
2018-04-14T04:59:46.806Z,28.13
2018-04-14T05:00:47.046Z,28.13
2018-04-14T05:01:47.284Z,33.75
2018-04-14T05:02:47.524Z,33.75
2018-04-14T05:03:47.764Z,39.38
2018-04-14T05:04:48.006Z,39.38
2018-04-14T05:05:48.242Z,45.00
2018-04-14T05:06:48.484Z,45.00
2018-04-14T05:07:48.719Z,50.63
2018-04-14T05:08:48.958Z,50.63
2018-04-14T05:09:49.199Z,50.63
2018-04-14T05:10:49.441Z,50.63
2018-04-14T05:11:49.682Z,50.63
2018-04-14T05:12:49.915Z,56.25
2018-04-14T05:13:50.154Z,56.25
2018-04-14T05:14:50.390Z,61.88
2018-04-14T05:15:50.631Z,67.50
2018-04-14T05:16:50.876Z,73.13
2018-04-14T05:17:51.110Z,78.75
2018-04-14T05:18:51.351Z,84.38
2018-04-14T05:19:51.588Z,90.00
2018-04-14T05:20:51.833Z,90.00
2018-04-14T05:21:52.071Z,95.63
2018-04-14T05:22:52.311Z,95.63
2018-04-14T05:23:52.551Z,95.63
2018-04-14T05:24:52.791Z,95.63
2018-04-14T05:25:53.036Z,101.25
2018-04-14T05:26:53.274Z,101.25
2018-04-14T05:27:53.513Z,106.88
2018-04-14T05:28:53.752Z,112.50
2018-04-14T05:29:53.992Z,118.13
2018-04-14T05:30:54.234Z,118.13
2018-04-14T05:31:54.475Z,123.75
2018-04-14T05:32:54.713Z,123.75
2018-04-14T05:33:54.954Z,123.75
2018-04-14T05:34:55.194Z,123.75
2018-04-14T05:35:55.434Z,123.75
2018-04-14T05:36:55.672Z,129.38
2018-04-14T05:37:55.911Z,129.38
2018-04-14T05:38:56.152Z,135.00
2018-04-14T05:39:56.392Z,140.63
2018-04-14T05:40:56.632Z,140.63
2018-04-14T05:41:56.873Z,146.25
2018-04-14T05:42:57.116Z,151.88
2018-04-14T05:43:57.353Z,151.88
2018-04-14T05:44:57.593Z,151.88
2018-04-14T05:45:57.832Z,151.88
2018-04-14T05:46:58.072Z,151.88
2018-04-14T05:47:58.311Z,157.50
2018-04-14T05:48:58.551Z,163.13
2018-04-14T05:49:58.793Z,168.75
2018-04-14T05:50:59.081Z,174.38
2018-04-14T05:51:59.270Z,185.63
2018-04-14T05:52:59.511Z,202.50
2018-04-14T05:53:59.752Z,213.75
2018-04-14T05:54:59.990Z,219.38
2018-04-14T05:56:00.230Z,219.38
2018-04-14T05:57:00.468Z,225.00
2018-04-14T05:58:00.708Z,225.00
2018-04-14T05:59:00.950Z,230.63
2018-04-14T06:00:01.191Z,230.63
2018-04-14T06:01:01.433Z,230.63
2018-04-14T06:02:01.673Z,236.25
2018-04-14T06:03:01.921Z,241.88
2018-04-14T06:04:02.156Z,241.88
2018-04-14T06:05:02.402Z,241.88
2018-04-14T06:06:02.638Z,241.88
2018-04-14T06:07:02.881Z,247.50
2018-04-14T06:08:03.122Z,247.50
2018-04-14T06:09:03.413Z,253.13
2018-04-14T06:10:03.609Z,253.13
2018-04-14T06:11:03.852Z,258.75
2018-04-14T06:12:04.094Z,258.75
2018-04-14T06:13:04.339Z,258.75
2018-04-14T06:14:04.579Z,264.38
2018-04-14T06:15:04.821Z,264.38
2018-04-14T06:16:05.062Z,270.00
2018-04-14T06:17:05.305Z,281.25
2018-04-14T06:18:05.545Z,281.25
2018-04-14T06:19:05.785Z,275.63
2018-04-14T06:20:06.032Z,281.25
2018-04-14T06:21:06.272Z,281.25
2018-04-14T06:22:06.575Z,281.25
2018-04-14T06:23:06.759Z,286.88
2018-04-14T06:24:07.002Z,286.88
2018-04-14T06:25:07.244Z,286.88
2018-04-14T06:26:07.484Z,292.50
2018-04-14T06:27:07.726Z,292.50
2018-04-14T06:28:07.970Z,309.38
2018-04-14T06:29:08.203Z,354.38
2018-04-14T06:30:08.457Z,399.38
2018-04-14T06:31:08.730Z,405.00
2018-04-14T06:32:08.974Z,410.63
2018-04-14T06:33:09.215Z,416.25
2018-04-14T06:34:09.460Z,421.88
2018-04-14T06:35:09.702Z,433.13
2018-04-14T06:36:09.943Z,438.75
2018-04-14T06:37:10.186Z,444.38
2018-04-14T06:38:10.429Z,450.00
2018-04-14T06:39:10.673Z,461.25
2018-04-14T06:40:10.913Z,466.88
2018-04-14T06:41:11.154Z,472.50
2018-04-14T06:42:11.396Z,483.75
2018-04-14T06:43:11.638Z,495.00
2018-04-14T06:44:11.880Z,500.63
2018-04-14T06:45:12.123Z,517.50
2018-04-14T06:46:12.366Z,523.13
2018-04-14T06:47:12.609Z,534.38
2018-04-14T06:48:12.851Z,540.00
2018-04-14T06:49:13.093Z,551.25
2018-04-14T06:50:13.369Z,562.50
2018-04-14T06:51:13.580Z,568.13
2018-04-14T06:52:13.823Z,579.38
2018-04-14T06:53:14.067Z,596.25
2018-04-14T06:54:14.310Z,607.50
2018-04-14T06:55:14.552Z,630.00
2018-04-14T06:56:14.796Z,635.63
2018-04-14T06:57:15.042Z,641.25
2018-04-14T06:58:15.284Z,658.13
2018-04-14T06:59:15.527Z,663.75
2018-04-14T07:00:15.771Z,675.00
2018-04-14T07:01:16.017Z,686.25
2018-04-14T07:02:16.260Z,703.13
2018-04-14T07:03:16.505Z,708.75
2018-04-14T07:04:16.750Z,731.25
2018-04-14T07:05:16.996Z,736.88
2018-04-14T07:06:17.239Z,742.50
2018-04-14T07:07:17.486Z,776.25
2018-04-14T07:08:17.729Z,810.00
2018-04-14T07:09:17.973Z,815.63
2018-04-14T07:10:18.218Z,832.50
2018-04-14T07:11:18.463Z,849.38
2018-04-14T07:12:18.707Z,866.25
2018-04-14T07:13:18.957Z,877.50
2018-04-14T07:14:19.196Z,894.38
2018-04-14T07:15:19.442Z,905.63
2018-04-14T07:16:19.688Z,933.75
2018-04-14T07:17:19.932Z,950.63
2018-04-14T07:18:20.183Z,961.88
2018-04-14T07:19:20.421Z,973.13
2018-04-14T07:20:20.666Z,978.75
2018-04-14T07:21:20.912Z,990.00
2018-04-14T07:22:21.160Z,990.00
2018-04-14T07:23:21.405Z,1001.25
2018-04-14T07:24:21.656Z,1006.88
2018-04-14T07:25:21.895Z,1029.38
2018-04-14T07:26:22.141Z,990.00
2018-04-14T07:27:22.390Z,916.88
2018-04-14T07:28:22.644Z,866.25
2018-04-14T07:29:22.882Z,843.75
2018-04-14T07:30:23.128Z,826.88
2018-04-14T07:31:23.374Z,815.63
2018-04-14T07:32:23.627Z,804.38
2018-04-14T07:33:23.866Z,793.13
2018-04-14T07:34:24.109Z,793.13
2018-04-14T07:35:24.362Z,781.88
2018-04-14T07:36:24.605Z,776.25
2018-04-14T07:37:24.850Z,765.00
2018-04-14T07:38:25.098Z,736.88
2018-04-14T07:39:25.346Z,731.25
2018-04-14T07:40:25.592Z,748.13
2018-04-14T07:41:25.838Z,753.75
2018-04-14T07:42:26.086Z,748.13
2018-04-14T07:43:26.335Z,759.38
2018-04-14T07:44:26.580Z,765.00
2018-04-14T07:45:26.828Z,776.25
2018-04-14T07:46:27.076Z,776.25
2018-04-14T07:47:27.321Z,765.00
2018-04-14T07:48:27.569Z,770.63
2018-04-14T07:49:27.818Z,770.63
2018-04-14T07:50:28.074Z,770.63
2018-04-14T07:51:28.310Z,770.63
2018-04-14T07:52:28.558Z,770.63
2018-04-14T07:53:28.808Z,770.63
2018-04-14T07:54:29.053Z,765.00
2018-04-14T07:55:29.301Z,759.38
2018-04-14T07:56:29.552Z,765.00
2018-04-14T07:57:29.792Z,765.00
2018-04-14T07:58:30.040Z,770.63
2018-04-14T07:59:30.289Z,770.63
2018-04-14T08:00:30.537Z,776.25
2018-04-14T08:01:30.793Z,781.88
2018-04-14T08:02:31.033Z,781.88
2018-04-14T08:03:31.283Z,787.50
2018-04-14T08:04:31.530Z,787.50
2018-04-14T08:05:31.780Z,787.50
2018-04-14T08:06:32.028Z,793.13
2018-04-14T08:07:32.275Z,793.13
2018-04-14T08:08:32.525Z,793.13
2018-04-14T08:09:32.773Z,804.38
2018-04-14T08:10:33.022Z,798.75
2018-04-14T08:11:33.306Z,798.75
2018-04-14T08:12:33.521Z,804.38
2018-04-14T08:13:33.767Z,804.38
2018-04-14T08:14:34.015Z,810.00
2018-04-14T08:15:34.265Z,815.63
2018-04-14T08:16:34.520Z,815.63
2018-04-14T08:17:34.771Z,826.88
2018-04-14T08:18:35.017Z,832.50
2018-04-14T08:19:35.266Z,838.13
2018-04-14T08:20:35.513Z,838.13
2018-04-14T08:21:35.770Z,843.75
2018-04-14T08:22:36.020Z,849.38
2018-04-14T08:23:36.270Z,849.38
2018-04-14T08:24:36.526Z,849.38
2018-04-14T08:25:36.770Z,832.50
2018-04-14T08:26:37.018Z,810.00
2018-04-14T08:27:37.270Z,855.00
2018-04-14T08:28:37.521Z,855.00
2018-04-14T08:29:37.779Z,860.63
2018-04-14T08:30:38.049Z,866.25
2018-04-14T08:31:38.301Z,866.25
2018-04-14T08:32:38.550Z,877.50
2018-04-14T08:33:38.904Z,877.50
2018-04-14T08:34:39.175Z,883.13
2018-04-14T08:35:39.417Z,888.75
2018-04-14T08:36:39.666Z,888.75
2018-04-14T08:37:39.914Z,894.38
2018-04-14T08:38:40.162Z,900.00
2018-04-14T08:39:40.413Z,905.63
2018-04-14T08:40:40.662Z,911.25
2018-04-14T08:41:40.912Z,916.88
2018-04-14T08:42:41.160Z,928.13
2018-04-14T08:43:41.413Z,933.75
2018-04-14T08:44:41.664Z,883.13
2018-04-14T08:45:41.909Z,956.25
2018-04-14T08:46:42.163Z,950.63
2018-04-14T08:47:42.413Z,973.13
2018-04-14T08:48:42.667Z,995.63
2018-04-14T08:49:42.913Z,1023.75
2018-04-14T08:50:43.164Z,1029.38
2018-04-14T08:51:43.414Z,1040.63
2018-04-14T08:52:43.657Z,1074.38
2018-04-14T08:53:43.909Z,1164.38
2018-04-14T08:54:44.160Z,1541.25
2018-04-14T08:55:44.410Z,2115.00
2018-04-14T08:56:44.660Z,2030.63
2018-04-14T08:57:44.911Z,2160.00
2018-04-14T08:58:45.172Z,1901.25
2018-04-14T08:59:45.417Z,2300.63
2018-04-14T09:00:45.667Z,2407.50
2018-04-14T09:01:45.919Z,2424.38
2018-04-14T09:02:46.170Z,2430.00
2018-04-14T09:03:46.424Z,2401.88
2018-04-14T09:04:46.675Z,2463.75
2018-04-14T09:05:46.926Z,2345.63
2018-04-14T09:06:47.177Z,2531.25
2018-04-14T09:07:47.431Z,2705.63
2018-04-14T09:08:47.679Z,2728.13
2018-04-14T09:09:47.933Z,2896.88
2018-04-14T09:10:48.184Z,2941.88
2018-04-14T09:11:48.437Z,2908.13
2018-04-14T09:12:48.690Z,2975.63
2018-04-14T09:13:48.942Z,2846.25
2018-04-14T09:14:49.194Z,2891.25
2018-04-14T09:15:49.448Z,1676.25
2018-04-14T09:16:49.699Z,2902.50
2018-04-14T09:17:49.954Z,3003.75
2018-04-14T09:18:50.204Z,2981.25
2018-04-14T09:19:50.458Z,2795.63
2018-04-14T09:20:50.709Z,2683.13
2018-04-14T09:21:50.965Z,2880.00
2018-04-14T09:22:51.217Z,2835.00
2018-04-14T09:23:51.470Z,2773.13
2018-04-14T09:24:51.721Z,2092.50
2018-04-14T09:25:51.975Z,1299.38
2018-04-14T09:26:52.227Z,1023.75
2018-04-14T09:27:52.481Z,883.13
2018-04-14T09:28:52.732Z,1333.13
2018-04-14T09:29:52.986Z,1828.13
2018-04-14T09:30:53.241Z,1833.75
2018-04-14T09:31:53.494Z,1800.00
2018-04-14T09:32:53.751Z,2182.50
2018-04-14T09:33:53.999Z,2480.63
2018-04-14T09:34:54.253Z,2491.88
2018-04-14T09:35:54.503Z,2621.25
2018-04-14T09:36:54.754Z,2711.25
2018-04-14T09:37:55.005Z,2874.38
2018-04-14T09:38:55.259Z,2576.25
2018-04-14T09:39:55.513Z,2469.38
2018-04-14T09:40:55.761Z,2385.00
2018-04-14T09:41:56.016Z,2773.13
2018-04-14T09:42:56.301Z,2919.38
2018-04-14T09:43:56.518Z,2857.50
2018-04-14T09:44:56.770Z,2790.00
2018-04-14T09:45:57.022Z,2795.63
2018-04-14T09:46:57.272Z,2660.63
2018-04-14T09:47:57.523Z,2615.63
2018-04-14T09:48:57.776Z,2660.63
2018-04-14T09:49:58.028Z,2660.63
2018-04-14T09:50:58.280Z,2700.00
2018-04-14T09:51:58.532Z,2767.50
2018-04-14T09:52:58.783Z,2970.00
2018-04-14T09:53:59.036Z,3076.88
2018-04-14T09:54:59.289Z,3138.75
2018-04-14T09:55:59.544Z,3183.75
2018-04-14T09:56:59.793Z,3228.75
2018-04-14T09:58:00.046Z,3251.25
2018-04-14T09:59:00.302Z,3195.00
2018-04-14T10:00:00.558Z,3307.50
2018-04-14T10:01:00.804Z,3313.13
2018-04-14T10:02:01.056Z,3290.63
2018-04-14T10:03:01.312Z,3290.63
2018-04-14T10:04:01.570Z,3313.13
2018-04-14T10:05:01.820Z,3324.38
2018-04-14T10:06:02.073Z,3358.13
2018-04-14T10:07:02.328Z,3408.75
2018-04-14T10:08:02.580Z,3386.25
2018-04-14T10:09:02.834Z,3375.00
2018-04-14T10:10:03.090Z,3425.63
2018-04-14T10:11:03.344Z,3425.63
2018-04-14T10:12:03.598Z,3166.88
2018-04-14T10:13:03.850Z,3307.50
2018-04-14T10:14:04.110Z,3335.63
2018-04-14T10:15:04.357Z,2694.38
2018-04-14T10:16:04.611Z,2970.00
2018-04-14T10:17:04.864Z,1721.25
2018-04-14T10:18:05.118Z,1288.13
2018-04-14T10:19:05.372Z,945.00
2018-04-14T10:20:05.626Z,1001.25
2018-04-14T10:21:05.878Z,1012.50
2018-04-14T10:22:06.135Z,1186.88
2018-04-14T10:23:06.389Z,1276.88
2018-04-14T10:24:06.638Z,1507.50
2018-04-14T10:25:06.894Z,1788.75
2018-04-14T10:26:07.143Z,1828.13
2018-04-14T10:27:07.426Z,2030.63
2018-04-14T10:28:07.648Z,2053.13
2018-04-14T10:29:07.903Z,2272.50
2018-04-14T10:30:08.156Z,1496.25
2018-04-14T10:31:08.409Z,2536.88
2018-04-14T10:32:08.658Z,2649.38
2018-04-14T10:33:08.913Z,2115.00
2018-04-14T10:34:09.161Z,1642.50
2018-04-14T10:35:09.417Z,1929.38
2018-04-14T10:36:09.664Z,1968.75
2018-04-14T10:37:09.916Z,2323.13
2018-04-14T10:38:10.192Z,2570.63
2018-04-14T10:39:10.415Z,3240.00
2018-04-14T10:40:10.667Z,3408.75
2018-04-14T10:41:10.918Z,3594.38
2018-04-14T10:42:11.169Z,3560.63
2018-04-14T10:43:11.423Z,3600.00
2018-04-14T10:44:11.678Z,3611.25
2018-04-14T10:45:11.967Z,3555.00
2018-04-14T10:46:12.179Z,3583.13
2018-04-14T10:47:12.431Z,3487.50
2018-04-14T10:48:12.684Z,3476.25
2018-04-14T10:49:12.937Z,3487.50
2018-04-14T10:50:13.191Z,3436.88
2018-04-14T10:51:13.442Z,3346.88
2018-04-14T10:52:13.694Z,3307.50
2018-04-14T10:53:13.949Z,3459.38
2018-04-14T10:54:14.204Z,3391.88
2018-04-14T10:55:14.454Z,3386.25
2018-04-14T10:56:14.708Z,3003.75
2018-04-14T10:57:14.961Z,3296.25
2018-04-14T10:58:15.215Z,3639.38
2018-04-14T10:59:15.467Z,3768.75
2018-04-14T11:00:15.732Z,3256.88
2018-04-14T11:01:15.975Z,1783.13
2018-04-14T11:02:16.228Z,3611.25
2018-04-14T11:03:16.483Z,3841.88
2018-04-14T11:04:16.737Z,3864.38
2018-04-14T11:05:16.991Z,1372.50
2018-04-14T11:06:17.245Z,2829.38
2018-04-14T11:07:17.498Z,1035.00
2018-04-14T11:08:17.750Z,3841.88
2018-04-14T11:09:18.008Z,3178.13
2018-04-14T11:10:18.262Z,3375.00
2018-04-14T11:11:18.516Z,3915.00
2018-04-14T11:12:18.772Z,3847.50
2018-04-14T11:13:19.023Z,3110.63
2018-04-14T11:14:19.275Z,3690.00
2018-04-14T11:15:19.541Z,905.63
2018-04-14T11:16:19.786Z,748.13
2018-04-14T11:17:20.041Z,781.88
2018-04-14T11:18:20.296Z,843.75
2018-04-14T11:19:20.546Z,3825.00
2018-04-14T11:20:20.806Z,3982.50
2018-04-14T11:21:21.056Z,1001.25
2018-04-14T11:22:21.308Z,990.00
2018-04-14T11:23:21.559Z,3931.88
2018-04-14T11:24:21.813Z,1096.88
2018-04-14T11:25:22.066Z,3903.75
2018-04-14T11:26:22.439Z,3926.25
2018-04-14T11:27:22.693Z,4055.63
2018-04-14T11:28:22.979Z,4089.38
2018-04-14T11:29:23.233Z,3898.13
2018-04-14T11:30:23.489Z,1192.50
2018-04-14T11:31:23.775Z,4010.63
2018-04-14T11:32:23.992Z,4055.63
2018-04-14T11:33:24.245Z,3695.63
2018-04-14T11:34:24.584Z,793.13
2018-04-14T11:35:24.842Z,804.38
2018-04-14T11:36:25.102Z,804.38
2018-04-14T11:37:25.352Z,950.63
2018-04-14T11:38:25.606Z,1096.88
2018-04-14T11:39:25.947Z,821.25
2018-04-14T11:40:26.173Z,2463.75
2018-04-14T11:41:26.453Z,798.75
2018-04-14T11:42:26.842Z,4055.63
2018-04-14T11:43:27.133Z,838.13
2018-04-14T11:44:27.347Z,810.00
2018-04-14T11:45:27.588Z,838.13
2018-04-14T11:46:27.839Z,905.63
2018-04-14T11:47:28.218Z,1192.50
2018-04-14T11:48:28.471Z,3105.00
2018-04-14T11:49:28.723Z,4072.50
2018-04-14T11:50:28.996Z,1113.75
2018-04-14T11:51:29.273Z,1018.13
2018-04-14T11:52:29.573Z,894.38
2018-04-14T11:53:29.822Z,2401.88
2018-04-14T11:54:30.071Z,832.50
2018-04-14T11:55:30.334Z,669.38
2018-04-14T11:56:30.624Z,669.38
2018-04-14T11:57:30.902Z,675.00
2018-04-14T11:58:31.156Z,753.75
2018-04-14T11:59:31.407Z,883.13
2018-04-14T12:00:31.661Z,1918.13
2018-04-14T12:01:31.915Z,613.13
2018-04-14T12:02:32.162Z,3290.63
2018-04-14T12:03:32.415Z,3549.38
2018-04-14T12:04:32.665Z,855.00
2018-04-14T12:05:32.917Z,3335.63
2018-04-14T12:06:33.169Z,3538.13
2018-04-14T12:07:33.423Z,1839.38
2018-04-14T12:08:33.669Z,3628.13
2018-04-14T12:09:33.921Z,3684.38
2018-04-14T12:10:34.173Z,3706.88
2018-04-14T12:11:34.427Z,3718.13
2018-04-14T12:12:34.681Z,3740.63
2018-04-14T12:13:34.930Z,3746.25
2018-04-14T12:14:35.183Z,3735.00
2018-04-14T12:15:35.437Z,3757.50
2018-04-14T12:16:35.689Z,3751.88
2018-04-14T12:17:35.939Z,3729.38
2018-04-14T12:18:36.189Z,3718.13
2018-04-14T12:19:36.443Z,3780.00
2018-04-14T12:20:36.697Z,3740.63
2018-04-14T12:21:36.963Z,3639.38
2018-04-14T12:22:37.250Z,2250.00
2018-04-14T12:23:37.457Z,731.25
2018-04-14T12:24:37.714Z,781.88
2018-04-14T12:25:37.966Z,860.63
2018-04-14T12:26:38.219Z,2503.13
2018-04-14T12:27:38.476Z,3757.50
2018-04-14T12:28:38.727Z,770.63
2018-04-14T12:29:38.980Z,742.50
2018-04-14T12:30:39.233Z,753.75
2018-04-14T12:31:39.485Z,759.38
2018-04-14T12:32:39.742Z,731.25
2018-04-14T12:33:39.996Z,680.63
2018-04-14T12:34:40.278Z,652.50
2018-04-14T12:35:40.505Z,613.13
2018-04-14T12:36:40.759Z,641.25
2018-04-14T12:37:41.010Z,714.38
2018-04-14T12:38:41.263Z,663.75
2018-04-14T12:39:41.515Z,669.38
2018-04-14T12:40:41.769Z,635.63
2018-04-14T12:41:42.021Z,590.63
2018-04-14T12:42:42.273Z,562.50
2018-04-14T12:43:42.522Z,556.88
2018-04-14T12:44:42.778Z,585.00